Time;durP1;ratioP1;P1;durP2;ratioP2;P2;SDS_P1;SDS_P2;PMS_P1;PMS_P2;Temp;Humidity;BMP_temperature;BMP_pressure;BME280_temperature;BME280_humidity;BME280_pressure;Samples;Min_cycle;Max_cycle;Signal;HPM_P1;HPM_P2
2021/10/15 00:02:23;;;;;;;24.02;7.18;;;;;;;11.37;100.00;99718.63;4790934;29;20024;-81
2021/10/15 00:04:49;;;;;;;27.00;6.63;;;;;;;11.21;100.00;99681.59;4760807;30;20035;-81
2021/10/15 00:07:14;;;;;;;22.65;6.45;;;;;;;11.23;100.00;99674.13;4774757;30;20451;-81
2021/10/15 00:09:40;;;;;;;27.52;6.13;;;;;;;11.39;100.00;99699.53;4760030;30;20127;-81
2021/10/15 00:12:06;;;;;;;24.65;6.60;;;;;;;11.38;100.00;99695.22;4774130;30;20066;-81
2021/10/15 00:14:31;;;;;;;21.88;6.18;;;;;;;11.42;100.00;99693.69;4761226;30;20067;-81
2021/10/15 00:16:57;;;;;;;22.20;6.65;;;;;;;11.39;100.00;99696.84;4761368;30;20080;-81
2021/10/15 00:19:22;;;;;;;20.88;6.93;;;;;;;11.34;100.00;99675.19;4774757;30;20046;-80
2021/10/15 00:21:49;;;;;;;20.85;6.32;;;;;;;11.41;100.00;99689.34;4773754;30;20031;-80
2021/10/15 00:24:15;;;;;;;17.05;5.65;;;;;;;11.40;100.00;99687.72;4789457;30;20031;-80
2021/10/15 00:26:40;;;;;;;18.63;5.25;;;;;;;11.44;100.00;99702.38;4789420;30;20455;-81
2021/10/15 00:29:08;;;;;;;20.33;5.60;;;;;;;11.47;100.00;99707.28;4773602;30;20050;-80
2021/10/15 00:31:33;;;;;;;12.73;4.30;;;;;;;11.28;100.00;99655.38;4772695;30;20485;-80
2021/10/15 00:33:59;;;;;;;16.45;3.63;;;;;;;11.31;100.00;99671.06;4773382;30;20062;-80
2021/10/15 00:36:24;;;;;;;11.57;3.55;;;;;;;11.28;100.00;99677.75;4772688;30;20035;-80
2021/10/15 00:38:50;;;;;;;16.38;2.70;;;;;;;11.24;100.00;99679.25;4773152;30;20409;-80
2021/10/15 00:41:16;;;;;;;10.13;2.22;;;;;;;11.17;100.00;99667.78;4789913;30;20062;-80
2021/10/15 00:44:01;;;;;;;14.70;2.10;;;;;;;11.02;100.00;99646.66;4788045;30;20065;-80
2021/10/15 00:46:27;;;;;;;12.57;1.77;;;;;;;11.01;100.00;99658.47;4758295;30;20039;-80
2021/10/15 00:48:53;;;;;;;12.05;2.05;;;;;;;10.95;100.00;99647.81;4772407;30;20058;-80
2021/10/15 00:51:20;;;;;;;13.27;1.60;;;;;;;10.89;100.00;99656.81;4773529;30;20100;-80
2021/10/15 00:53:45;;;;;;;9.23;1.42;;;;;;;10.87;100.00;99645.47;4789929;30;20045;-80
2021/10/15 00:56:12;;;;;;;12.25;1.85;;;;;;;10.77;100.00;99633.38;4789455;30;20043;-80
2021/10/15 00:58:37;;;;;;;8.93;1.55;;;;;;;10.77;100.00;99613.72;4790835;30;20031;-80
2021/10/15 01:01:03;;;;;;;13.35;1.95;;;;;;;10.76;100.00;99623.66;4754898;30;20042;-80
2021/10/15 01:03:28;;;;;;;11.13;1.40;;;;;;;10.77;100.00;99619.91;4771109;30;20482;-80
2021/10/15 01:05:55;;;;;;;13.70;1.60;;;;;;;10.69;100.00;99609.47;4773333;30;20042;-80
2021/10/15 01:08:20;;;;;;;11.88;1.83;;;;;;;10.64;100.00;99590.53;4762786;30;20048;-80
2021/10/15 01:10:46;;;;;;;17.27;2.15;;;;;;;10.71;100.00;99595.81;4772871;30;20420;-80
2021/10/15 01:13:11;;;;;;;9.13;1.35;;;;;;;10.69;100.00;99587.94;4773491;30;20442;-80
2021/10/15 01:15:37;;;;;;;10.98;1.98;;;;;;;10.75;100.00;99619.31;4772017;30;20524;-80
2021/10/15 01:18:09;;;;;;;9.85;1.45;;;;;;;10.65;100.00;99631.69;4788930;30;20048;-81
2021/10/15 01:20:35;;;;;;;11.25;1.55;;;;;;;10.61;100.00;99643.97;4773086;30;20523;-80
2021/10/15 01:23:00;;;;;;;9.85;1.52;;;;;;;10.55;100.00;99645.69;4772892;30;20054;-81
2021/10/15 01:25:30;;;;;;;14.20;1.83;;;;;;;10.47;100.00;99628.00;4788995;30;20031;-81
2021/10/15 01:27:55;;;;;;;7.80;1.38;;;;;;;10.50;100.00;99632.94;4789463;30;20049;-80
2021/10/15 01:30:20;;;;;;;10.55;1.60;;;;;;;10.46;100.00;99625.53;4773007;30;20039;-80
2021/10/15 01:32:46;;;;;;;15.40;1.52;;;;;;;10.46;100.00;99631.75;4759316;30;20039;-81
2021/10/15 01:35:11;;;;;;;13.73;1.90;;;;;;;10.47;100.00;99629.88;4759258;30;20067;-81
2021/10/15 01:37:36;;;;;;;14.60;2.10;;;;;;;10.40;100.00;99631.81;4744954;30;20054;-81
2021/10/15 01:40:02;;;;;;;13.68;2.17;;;;;;;10.41;100.00;99614.63;4774784;30;20035;-81
2021/10/15 01:45:12;;;;;;;18.05;1.90;;;;;;;10.32;100.00;99608.75;4776186;30;20046;-81
2021/10/15 01:47:37;;;;;;;19.75;2.78;;;;;;;10.41;100.00;99620.00;4757999;30;20450;-81
2021/10/15 01:50:03;;;;;;;16.85;2.00;;;;;;;10.47;100.00;99621.81;4774860;30;20035;-81
2021/10/15 01:52:28;;;;;;;11.38;2.03;;;;;;;10.43;100.00;99617.91;4760531;30;20035;-81
2021/10/15 01:54:54;;;;;;;12.55;2.20;;;;;;;10.44;100.00;99617.69;4756860;30;20032;-81
2021/10/15 01:57:19;;;;;;;11.50;1.95;;;;;;;10.23;100.00;99575.13;4760369;30;20036;-82
2021/10/15 01:59:44;;;;;;;18.67;2.45;;;;;;;10.18;100.00;99583.06;4749874;30;20465;-82
2021/10/15 02:02:10;;;;;;;9.23;1.50;;;;;;;10.34;100.00;99615.53;4755977;30;20036;-82
2021/10/15 02:04:35;;;;;;;12.02;2.22;;;;;;;10.02;100.00;99571.03;4775783;30;20479;-81
2021/10/15 02:07:01;;;;;;;16.48;2.53;;;;;;;10.12;100.00;99582.09;4776495;30;20044;-81
2021/10/15 02:09:26;;;;;;;19.40;2.97;;;;;;;10.31;100.00;99605.25;4750039;30;20067;-82
2021/10/15 02:11:51;;;;;;;14.10;2.20;;;;;;;10.12;100.00;99580.22;4784466;30;20061;-81
2021/10/15 02:14:17;;;;;;;25.33;2.80;;;;;;;10.32;100.00;99603.38;4802897;30;20058;-81
2021/10/15 02:16:42;;;;;;;18.80;2.90;;;;;;;10.36;100.00;99601.84;4783727;30;20130;-82
2021/10/15 02:19:07;;;;;;;28.63;3.42;;;;;;;10.23;100.00;99578.66;4800225;30;20059;-82
2021/10/15 02:21:33;;;;;;;19.58;2.42;;;;;;;10.32;100.00;99581.84;4760167;30;20035;-82
2021/10/15 02:23:58;;;;;;;21.98;2.95;;;;;;;10.35;100.00;99568.78;4775002;30;20059;-82
2021/10/15 02:26:24;;;;;;;21.13;4.03;;;;;;;10.32;100.00;99582.66;4776702;30;20039;-82
2021/10/15 02:28:49;;;;;;;16.88;2.78;;;;;;;10.38;100.00;99580.13;4792449;30;20367;-82
2021/10/15 02:31:14;;;;;;;22.42;2.67;;;;;;;10.42;100.00;99600.13;4778692;30;20100;-82
2021/10/15 02:33:40;;;;;;;26.73;2.92;;;;;;;10.31;100.00;99586.41;4792998;30;20169;-82
2021/10/15 02:36:05;;;;;;;21.33;3.20;;;;;;;10.47;100.00;99598.41;4777912;30;20050;-81
2021/10/15 02:38:31;;;;;;;18.67;2.90;;;;;;;10.52;99.71;99598.53;4762521;30;20047;-81
2021/10/15 02:40:57;;;;;;;13.38;2.30;;;;;;;10.55;98.73;99590.00;4777307;30;20031;-82
2021/10/15 02:43:23;;;;;;;14.55;2.38;;;;;;;10.56;97.36;99598.91;4777299;30;20051;-81
2021/10/15 02:45:49;;;;;;;11.68;2.10;;;;;;;10.58;94.83;99583.38;4777134;30;20182;-82
2021/10/15 02:48:14;;;;;;;12.05;1.73;;;;;;;10.61;93.66;99595.53;4776707;30;20065;-82
2021/10/15 02:50:40;;;;;;;13.40;2.00;;;;;;;10.63;93.08;99591.56;4763261;30;20103;-82
2021/10/15 02:53:05;;;;;;;16.90;2.20;;;;;;;10.51;93.22;99553.06;4759295;30;20139;-82
2021/10/15 02:55:32;;;;;;;16.17;3.85;;;;;;;10.70;92.98;99596.88;4775007;30;20110;-82
2021/10/15 02:57:57;;;;;;;14.65;1.60;;;;;;;10.77;93.35;99584.13;4765142;30;20043;-82
2021/10/15 03:00:23;;;;;;;17.63;2.67;;;;;;;10.72;93.08;99582.09;4779187;30;20035;-82
2021/10/15 03:02:48;;;;;;;8.75;1.52;;;;;;;10.67;92.19;99582.00;4778475;30;20043;-81
2021/10/15 03:05:13;;;;;;;18.15;2.30;;;;;;;10.64;91.13;99585.13;4794327;30;20096;-82
2021/10/15 03:07:39;;;;;;;13.20;2.50;;;;;;;10.68;91.43;99602.47;4779131;30;20611;-81
2021/10/15 03:10:08;;;;;;;12.15;2.35;;;;;;;10.67;91.44;99595.44;4779535;30;20039;-82
2021/10/15 03:12:35;;;;;;;13.40;1.85;;;;;;;10.58;92.13;99573.41;4778937;30;20054;-82
2021/10/15 03:15:01;;;;;;;12.15;1.63;;;;;;;10.52;90.13;99568.13;4781405;30;20386;-82
2021/10/15 03:17:26;;;;;;;10.45;1.63;;;;;;;10.61;88.67;99590.97;4795895;30;20032;-83
2021/10/15 03:19:51;;;;;;;8.75;1.55;;;;;;;10.55;88.51;99573.06;4768262;30;20035;-83
2021/10/15 03:22:17;;;;;;;20.40;2.30;;;;;;;10.52;90.09;99576.19;4781455;30;20054;-82
2021/10/15 03:24:42;;;;;;;14.95;2.22;;;;;;;10.51;90.65;99599.59;4787388;30;20046;-82
2021/10/15 03:27:07;;;;;;;16.58;2.22;;;;;;;10.48;91.15;99585.78;4764084;30;20117;-82
2021/10/15 03:29:33;;;;;;;16.40;2.28;;;;;;;10.52;90.80;99589.66;4779308;30;20374;-81
2021/10/15 03:31:58;;;;;;;10.18;1.73;;;;;;;10.47;91.00;99600.28;4779366;30;20046;-82
2021/10/15 03:34:24;;;;;;;9.00;1.95;;;;;;;10.48;89.98;99612.69;4778649;30;20122;-82
2021/10/15 03:36:49;;;;;;;16.50;2.47;;;;;;;10.43;90.43;99615.22;4748883;30;20083;-82
2021/10/15 03:39:15;;;;;;;14.00;2.17;;;;;;;10.43;90.35;99607.16;4770307;30;20031;-82
2021/10/15 03:41:40;;;;;;;12.13;2.05;;;;;;;10.45;89.43;99599.69;4761120;30;20043;-82
2021/10/15 03:44:06;;;;;;;10.55;2.42;;;;;;;10.34;89.71;99585.16;4764112;30;20062;-81
2021/10/15 03:46:32;;;;;;;11.43;1.73;;;;;;;10.39;89.89;99609.47;4777894;30;20027;-83
2021/10/15 03:48:58;;;;;;;12.45;2.47;;;;;;;10.39;89.87;99597.91;4782790;30;20131;-82
2021/10/15 03:51:23;;;;;;;10.52;1.77;;;;;;;10.35;88.56;99600.22;4777228;30;20047;-81
2021/10/15 03:53:49;;;;;;;11.35;2.35;;;;;;;10.35;88.52;99597.53;4777115;30;20046;-81
2021/10/15 03:56:15;;;;;;;10.38;2.17;;;;;;;10.24;89.15;99587.53;4791824;30;20038;-82
2021/10/15 03:58:41;;;;;;;12.70;2.25;;;;;;;10.00;90.35;99547.09;4748627;30;20124;-82
2021/10/15 04:01:07;;;;;;;17.58;2.47;;;;;;;10.32;91.00;99609.56;4792827;30;20498;-83
2021/10/15 04:03:32;;;;;;;12.75;2.05;;;;;;;10.34;89.64;99582.47;4777513;30;20028;-81
2021/10/15 04:05:58;;;;;;;14.43;2.10;;;;;;;10.37;88.42;99582.00;4776512;30;20042;-81
2021/10/15 04:08:23;;;;;;;10.23;1.98;;;;;;;10.33;89.03;99578.97;4759250;30;20036;-80
2021/10/15 04:10:48;;;;;;;9.02;1.77;;;;;;;10.13;88.88;99538.03;4774577;30;20382;-82
2021/10/15 04:13:14;;;;;;;13.15;2.25;;;;;;;10.31;89.49;99559.53;4760148;30;20069;-81
2021/10/15 04:15:39;;;;;;;9.80;1.48;;;;;;;10.40;87.74;99564.56;4776015;30;20066;-81
2021/10/15 04:18:05;;;;;;;10.90;2.58;;;;;;;10.41;87.53;99569.75;4774711;30;20424;-81
2021/10/15 04:20:30;;;;;;;18.48;2.35;;;;;;;10.29;88.60;99541.97;4775189;30;20273;-81
2021/10/15 04:22:56;;;;;;;20.40;1.90;;;;;;;10.43;88.15;99564.13;4789453;30;20046;-80
2021/10/15 04:25:21;;;;;;;14.35;2.72;;;;;;;10.35;87.55;99546.44;4770376;30;20051;-80
2021/10/15 04:27:46;;;;;;;21.40;3.67;;;;;;;10.44;88.46;99563.09;4786949;29;20047;-80
2021/10/15 04:30:12;;;;;;;23.35;2.78;;;;;;;10.40;89.40;99551.97;4756488;29;20062;-80
2021/10/15 04:32:39;;;;;;;16.30;2.83;;;;;;;10.38;88.89;99534.41;4782324;30;20383;-81
2021/10/15 04:35:05;;;;;;;19.10;2.97;;;;;;;10.52;89.07;99560.06;4770740;30;20382;-81
2021/10/15 04:37:32;;;;;;;14.23;2.53;;;;;;;10.47;89.93;99558.06;4797722;30;20031;-81
2021/10/15 04:39:57;;;;;;;17.83;3.33;;;;;;;10.48;89.84;99551.63;4790135;30;20047;-80
2021/10/15 04:42:23;;;;;;;18.50;3.83;;;;;;;10.45;89.93;99552.09;4741971;30;20058;-80
2021/10/15 04:44:48;;;;;;;12.80;2.20;;;;;;;10.51;89.33;99561.13;4755177;30;20469;-80
2021/10/15 04:47:14;;;;;;;16.52;2.22;;;;;;;10.16;88.34;99507.19;4786033;30;20036;-81
2021/10/15 04:49:40;;;;;;;11.63;2.65;;;;;;;10.52;88.01;99565.44;4783491;29;20156;-80
2021/10/15 04:52:06;;;;;;;12.80;2.10;;;;;;;10.52;88.29;99570.81;4746702;30;20038;-80
2021/10/15 04:54:31;;;;;;;15.52;2.63;;;;;;;10.31;88.74;99519.19;4754627;30;20118;-79
2021/10/15 04:56:59;;;;;;;12.70;2.13;;;;;;;10.54;88.88;99549.91;4768994;30;20023;-81
2021/10/15 04:59:24;;;;;;;18.90;2.80;;;;;;;10.59;88.85;99558.09;4770416;30;20055;-80
2021/10/15 05:01:50;;;;;;;16.77;2.40;;;;;;;10.56;89.08;99550.47;4769926;30;20066;-80
2021/10/15 05:04:15;;;;;;;13.18;1.60;;;;;;;10.51;88.18;99553.88;4768020;30;20035;-80
2021/10/15 05:06:42;;;;;;;8.75;1.60;;;;;;;10.55;87.77;99556.91;4787931;30;20104;-81
2021/10/15 05:11:34;;;;;;;10.30;1.65;;;;;;;10.46;88.39;99548.38;4789248;29;20035;-81
2021/10/15 05:14:00;;;;;;;13.18;1.80;;;;;;;10.52;87.50;99552.00;4768054;30;20138;-80
2021/10/15 05:16:26;;;;;;;13.07;2.00;;;;;;;10.51;89.27;99543.09;4770285;30;20058;-80
2021/10/15 05:18:52;;;;;;;10.35;1.80;;;;;;;10.53;88.92;99545.59;4769059;29;20402;-80
2021/10/15 05:21:17;;;;;;;6.50;1.50;;;;;;;10.49;87.29;99545.19;4754957;30;20064;-80
2021/10/15 05:23:43;;;;;;;9.18;1.42;;;;;;;10.47;87.95;99551.88;4767498;30;20119;-80
2021/10/15 05:26:09;;;;;;;8.80;1.38;;;;;;;10.44;87.70;99550.47;4751460;30;20065;-81
2021/10/15 05:28:34;;;;;;;8.70;1.75;;;;;;;10.45;86.97;99548.59;4770234;30;20035;-80
2021/10/15 05:30:59;;;;;;;9.45;1.70;;;;;;;10.45;86.49;99548.59;4788282;30;20048;-80
2021/10/15 05:33:25;;;;;;;14.18;2.28;;;;;;;10.24;86.91;99531.88;4774348;30;20031;-80
2021/10/15 05:35:51;;;;;;;11.55;1.55;;;;;;;10.43;87.51;99561.44;4788533;30;20089;-81
2021/10/15 05:38:16;;;;;;;12.77;2.45;;;;;;;10.21;87.56;99518.91;4774195;30;20023;-80
2021/10/15 05:40:42;;;;;;;10.35;1.30;;;;;;;10.46;86.86;99560.97;4788162;30;20811;-81
2021/10/15 05:43:08;;;;;;;11.88;1.98;;;;;;;10.45;87.38;99552.09;4774919;30;20039;-80
2021/10/15 05:45:33;;;;;;;10.35;1.67;;;;;;;10.46;87.30;99555.59;4772011;30;20046;-80
2021/10/15 05:47:58;;;;;;;8.55;1.77;;;;;;;10.49;87.23;99552.44;4771527;30;20058;-81
2021/10/15 05:50:25;;;;;;;10.65;1.30;;;;;;;10.50;87.56;99556.81;4742530;30;20043;-80
2021/10/15 05:52:52;;;;;;;6.75;1.08;;;;;;;10.33;87.08;99535.94;4786043;30;20035;-81
2021/10/15 06:00:27;;;;;;;4.35;1.20;;;;;;;10.57;86.68;99584.41;4785567;29;20123;-81
2021/10/15 06:02:53;;;;;;;10.48;1.40;;;;;;;10.56;85.59;99572.00;4773637;30;20126;-81
2021/10/15 06:16:14;;;;;;;5.33;1.13;;;;;;;10.54;85.88;99583.00;4776046;30;20038;-82
2021/10/15 06:18:41;;;;;;;6.65;0.90;;;;;;;10.58;86.21;99586.06;4771680;30;20035;-81
2021/10/15 06:21:07;;;;;;;10.05;1.30;;;;;;;10.57;87.09;99585.25;4787964;30;20039;-81
2021/10/15 06:23:33;;;;;;;9.73;1.33;;;;;;;10.59;86.29;99585.00;4790852;30;20114;-80
2021/10/15 06:25:59;;;;;;;10.23;1.60;;;;;;;10.48;87.44;99575.84;4790988;30;20039;-81
2021/10/15 06:28:25;;;;;;;14.18;1.65;;;;;;;10.61;86.49;99600.91;4773269;30;20114;-81
2021/10/15 06:30:50;;;;;;;7.30;1.23;;;;;;;10.67;85.70;99610.78;4775713;30;20249;-81
2021/10/15 06:33:16;;;;;;;13.30;2.25;;;;;;;10.75;86.05;99611.25;4775687;30;20038;-81
2021/10/15 06:35:41;;;;;;;9.65;1.95;;;;;;;10.77;85.51;99619.91;4776093;30;20049;-81
2021/10/15 06:38:07;;;;;;;8.38;1.75;;;;;;;10.34;85.32;99537.56;4776374;30;20055;-81
2021/10/15 06:40:36;;;;;;;7.18;1.70;;;;;;;10.94;82.41;99622.78;4789942;30;20032;-81
2021/10/15 06:43:02;;;;;;;6.90;1.25;;;;;;;10.94;82.64;99595.84;4775912;29;20129;-81
2021/10/15 06:45:27;;;;;;;4.47;1.30;;;;;;;10.90;81.60;99604.63;4758747;30;20810;-81
2021/10/15 06:47:52;;;;;;;5.70;1.15;;;;;;;10.95;82.92;99631.66;4790418;30;20108;-80
2021/10/15 06:50:18;;;;;;;6.40;1.40;;;;;;;10.92;82.45;99610.59;4774267;29;20039;-81
2021/10/15 06:52:46;;;;;;;7.88;1.42;;;;;;;10.87;81.64;99615.84;4761113;30;20130;-81
2021/10/15 06:55:13;;;;;;;7.85;1.08;;;;;;;10.87;84.96;99624.75;4758666;30;20048;-80
2021/10/15 06:57:39;;;;;;;8.23;1.45;;;;;;;10.81;83.25;99618.41;4773421;30;20035;-80
2021/10/15 07:00:05;;;;;;;6.18;1.00;;;;;;;10.77;82.20;99606.47;4772798;30;20038;-80
2021/10/15 07:02:30;;;;;;;11.15;1.77;;;;;;;11.02;84.86;99645.84;4759355;30;20457;-81
2021/10/15 07:04:56;;;;;;;7.07;1.20;;;;;;;11.09;81.22;99640.34;4770506;30;20069;-81
2021/10/15 07:07:21;;;;;;;4.72;1.00;;;;;;;11.15;83.11;99636.75;4757820;30;20127;-82
2021/10/15 07:09:47;;;;;;;5.38;0.98;;;;;;;11.19;83.29;99656.75;4787618;30;20044;-81
2021/10/15 07:12:12;;;;;;;6.75;1.08;;;;;;;11.22;80.93;99659.00;4791419;29;20409;-81
2021/10/15 07:14:37;;;;;;;6.55;1.13;;;;;;;11.00;80.31;99627.25;4780359;30;20172;-81
2021/10/15 07:17:03;;;;;;;3.95;0.90;;;;;;;11.15;79.86;99655.59;4760784;30;20356;-82
2021/10/15 07:19:28;;;;;;;5.45;0.90;;;;;;;11.05;79.04;99640.00;4762368;30;20035;-81
2021/10/15 07:21:54;;;;;;;6.18;1.30;;;;;;;11.17;80.45;99675.84;4794540;30;20028;-82
2021/10/15 07:24:19;;;;;;;5.82;1.10;;;;;;;11.18;80.39;99677.47;4752436;30;20058;-82
2021/10/15 07:26:44;;;;;;;7.57;0.95;;;;;;;11.18;83.31;99682.88;4789955;30;20035;-81
2021/10/15 07:29:10;;;;;;;6.40;0.80;;;;;;;11.17;81.69;99692.00;4773572;30;20039;-83
2021/10/15 07:31:35;;;;;;;4.20;1.00;;;;;;;11.23;79.70;99672.25;4771416;30;20039;-81
2021/10/15 07:34:02;;;;;;;4.57;0.75;;;;;;;11.25;78.67;99683.59;4786827;30;20054;-81
2021/10/15 07:36:27;;;;;;;4.88;0.90;;;;;;;11.18;77.92;99669.41;4792221;30;20450;-83
2021/10/15 07:38:53;;;;;;;4.70;0.80;;;;;;;11.35;78.00;99688.41;4776356;30;20035;-81
2021/10/15 07:41:18;;;;;;;4.57;0.90;;;;;;;11.29;77.01;99668.63;4775234;30;20205;-81
2021/10/15 07:43:47;;;;;;;5.60;0.77;;;;;;;11.37;76.16;99705.16;4788312;30;20043;-81
2021/10/15 07:46:12;;;;;;;7.38;0.90;;;;;;;11.38;76.60;99709.50;4770694;30;20050;-81
2021/10/15 07:48:38;;;;;;;3.85;0.82;;;;;;;11.25;75.86;99707.81;4771626;30;20063;-80
2021/10/15 07:51:04;;;;;;;7.40;1.25;;;;;;;11.29;76.08;99722.50;4770089;30;20042;-81
2021/10/15 07:53:29;;;;;;;3.47;0.63;;;;;;;11.36;76.28;99727.78;4744854;30;20131;-80
2021/10/15 07:55:55;;;;;;;8.40;1.00;;;;;;;11.37;76.02;99733.97;4792876;30;20031;-81
2021/10/15 07:58:20;;;;;;;3.42;0.68;;;;;;;11.34;76.34;99735.25;4792071;30;20070;-82
2021/10/15 08:00:45;;;;;;;4.25;0.60;;;;;;;11.07;73.96;99732.13;4779719;30;20675;-82
2021/10/15 08:03:11;;;;;;;3.33;0.60;;;;;;;11.27;74.24;99721.88;4762360;30;20104;-80
2021/10/15 08:05:36;;;;;;;2.65;0.60;;;;;;;11.37;72.05;99752.81;4787472;30;20035;-81
2021/10/15 08:08:02;;;;;;;7.50;0.80;;;;;;;10.83;72.00;99696.22;4769992;30;20035;-80
2021/10/15 08:10:27;;;;;;;3.13;0.47;;;;;;;11.10;71.44;99788.22;4784690;30;20036;-80
2021/10/15 08:12:52;;;;;;;3.05;0.32;;;;;;;11.10;68.86;99776.63;4772261;30;20046;-80
2021/10/15 08:15:18;;;;;;;3.00;0.40;;;;;;;11.13;70.20;99782.38;4770260;30;20035;-82
2021/10/15 08:17:45;;;;;;;4.88;0.50;;;;;;;10.96;70.62;99762.50;4788850;30;20109;-81
2021/10/15 08:20:13;;;;;;;1.58;0.30;;;;;;;10.95;69.57;99752.78;4773430;30;20028;-79
2021/10/15 08:22:39;;;;;;;1.80;0.35;;;;;;;11.20;69.09;99799.25;4772513;29;20031;-80
2021/10/15 08:25:06;;;;;;;3.97;0.60;;;;;;;11.26;69.36;99811.81;4769532;30;20031;-80
2021/10/15 08:27:32;;;;;;;2.63;0.50;;;;;;;10.43;68.30;99695.88;4755667;30;20035;-80
2021/10/15 08:29:58;;;;;;;1.63;0.40;;;;;;;10.69;68.02;99749.38;4772712;30;20036;-81
2021/10/15 08:32:23;;;;;;;2.63;0.55;;;;;;;11.09;64.80;99845.78;4789770;30;20031;-81
2021/10/15 08:34:49;;;;;;;2.25;0.30;;;;;;;11.12;64.15;99831.03;4763294;30;20371;-82
2021/10/15 08:37:14;;;;;;;1.33;0.30;;;;;;;11.03;63.30;99828.69;4768943;30;20035;-82
2021/10/15 08:39:39;;;;;;;0.95;0.22;;;;;;;11.01;63.09;99844.22;4763437;30;20034;-80
2021/10/15 08:42:05;;;;;;;0.93;0.20;;;;;;;11.05;64.11;99868.81;4769369;30;20037;-81
2021/10/15 08:44:35;;;;;;;1.42;0.28;;;;;;;11.07;64.56;99874.00;4766424;30;20043;-81
2021/10/15 08:47:01;;;;;;;1.00;0.30;;;;;;;11.08;62.81;99876.44;4797383;30;20035;-81
2021/10/15 08:49:27;;;;;;;0.55;0.20;;;;;;;11.01;62.80;99868.44;4786792;30;20051;-81
2021/10/15 08:51:52;;;;;;;1.15;0.20;;;;;;;10.93;61.44;99890.28;4758265;30;20047;-81
2021/10/15 08:54:18;;;;;;;0.35;0.20;;;;;;;10.94;60.71;99905.38;4769492;30;20035;-81
2021/10/15 08:56:45;;;;;;;0.10;0.10;;;;;;;10.81;60.93;99879.44;4772514;30;20035;-81
2021/10/15 08:59:13;;;;;;;1.10;0.20;;;;;;;10.90;60.23;99923.03;4786342;30;20436;-80
2021/10/15 09:01:48;;;;;;;0.55;0.20;;;;;;;10.84;59.50;99950.84;4789023;30;20035;-81
2021/10/15 09:04:18;;;;;;;0.90;0.30;;;;;;;10.79;59.50;99902.22;4772241;30;20451;-81
2021/10/15 09:06:45;;;;;;;1.52;0.30;;;;;;;10.72;58.71;99958.78;4770469;30;20039;-80
2021/10/15 09:09:11;;;;;;;0.50;0.20;;;;;;;10.68;57.55;99946.84;4769032;30;20043;-81
2021/10/15 09:11:37;;;;;;;0.32;0.17;;;;;;;10.71;57.60;99973.28;4754950;30;20379;-80
2021/10/15 09:14:07;;;;;;;1.30;0.15;;;;;;;10.76;57.37;99949.25;4783090;30;20051;-81
2021/10/15 09:17:02;;;;;;;0.20;0.10;;;;;;;10.85;55.07;99973.19;4769172;30;20031;-80
2021/10/15 09:19:45;;;;;;;0.60;0.10;;;;;;;10.88;57.44;99994.28;4788431;30;20070;-80
2021/10/15 09:22:30;;;;;;;0.40;0.20;;;;;;;10.89;58.13;99995.91;4770888;30;20358;-80
2021/10/15 09:25:15;;;;;;;0.63;0.20;;;;;;;10.81;54.82;99999.72;4768904;30;20037;-80
2021/10/15 09:27:46;;;;;;;0.40;0.10;;;;;;;10.80;55.55;99993.50;4769661;30;20431;-80
2021/10/15 09:30:16;;;;;;;0.65;0.32;;;;;;;10.89;57.10;100006.69;4768812;29;20060;-79
2021/10/15 09:32:44;;;;;;;0.30;0.10;;;;;;;10.81;56.87;100008.59;4784260;30;20047;-80
2021/10/15 09:35:12;;;;;;;0.35;0.10;;;;;;;10.96;56.78;100010.13;4788268;29;20114;-79
2021/10/15 09:37:40;;;;;;;2.28;0.17;;;;;;;10.83;55.54;100019.16;4788054;30;20039;-80
2021/10/15 09:40:16;;;;;;;0.60;0.20;;;;;;;10.92;56.24;100039.34;4773388;30;20031;-80
2021/10/15 09:42:47;;;;;;;1.05;0.10;;;;;;;10.91;56.56;100026.94;4789069;30;20035;-80
2021/10/15 09:45:18;;;;;;;0.40;0.10;;;;;;;10.75;56.03;100035.56;4785168;30;20019;-80
2021/10/15 09:47:52;;;;;;;1.13;0.50;;;;;;;10.88;55.14;100043.53;4769958;30;20031;-80
2021/10/15 09:50:20;;;;;;;0.57;0.20;;;;;;;10.83;56.60;100038.00;4788615;30;20050;-81
2021/10/15 09:52:49;;;;;;;0.40;0.20;;;;;;;10.67;58.10;100020.53;4771702;30;20379;-80
2021/10/15 09:55:35;;;;;;;0.30;0.20;;;;;;;10.93;58.13;100072.50;4775999;30;20042;-80
2021/10/15 09:58:21;;;;;;;1.02;0.20;;;;;;;10.80;56.17;100058.09;4785906;30;20023;-80
2021/10/15 10:00:51;;;;;;;0.35;0.13;;;;;;;10.93;55.40;100084.09;4786222;30;20047;-80
2021/10/15 10:03:18;;;;;;;0.28;0.10;;;;;;;11.02;55.46;100081.94;4767531;30;20104;-81
2021/10/15 10:05:44;;;;;;;0.73;0.30;;;;;;;10.94;55.41;100079.53;4785274;30;20526;-80
2021/10/15 10:08:10;;;;;;;0.52;0.15;;;;;;;11.03;57.76;100084.41;4787817;30;20098;-80
2021/10/15 10:10:38;;;;;;;0.52;0.20;;;;;;;11.04;57.64;100106.78;4771968;30;20015;-80
2021/10/15 10:13:05;;;;;;;0.22;0.20;;;;;;;11.09;54.68;100115.00;4758607;30;20402;-80
2021/10/15 10:15:33;;;;;;;0.63;0.20;;;;;;;11.05;51.60;100108.41;4754282;30;20042;-80
2021/10/15 10:18:14;;;;;;;1.38;0.40;;;;;;;11.13;52.26;100118.94;4772425;30;20724;-80
2021/10/15 10:20:45;;;;;;;0.40;0.20;;;;;;;11.03;53.22;100087.13;4775456;30;20557;-80
2021/10/15 10:23:30;;;;;;;0.63;0.20;;;;;;;11.04;52.08;100099.53;4776264;30;20059;-81
2021/10/15 10:26:03;;;;;;;0.52;0.35;;;;;;;11.09;52.91;100123.09;4776571;30;20046;-81
2021/10/15 10:28:29;;;;;;;0.57;0.20;;;;;;;10.92;53.01;100109.34;4784691;30;20045;-81
2021/10/15 10:31:05;;;;;;;0.73;0.20;;;;;;;11.02;51.18;100115.06;4774930;30;20031;-81
2021/10/15 10:33:53;;;;;;;0.40;0.17;;;;;;;11.08;51.03;100145.69;4788440;30;20023;-80
2021/10/15 10:36:19;;;;;;;0.80;0.20;;;;;;;10.91;51.67;100131.09;4787711;30;20084;-81
2021/10/15 10:38:44;;;;;;;0.90;0.20;;;;;;;11.05;52.31;100148.81;4772718;30;20031;-81
2021/10/15 10:41:16;;;;;;;0.30;0.20;;;;;;;11.00;53.33;100148.66;4773803;30;20035;-81
2021/10/15 10:43:44;;;;;;;0.40;0.15;;;;;;;11.09;51.82;100155.38;4790190;30;20034;-81
2021/10/15 10:46:18;;;;;;;0.90;0.20;;;;;;;10.92;50.75;100146.19;4787916;29;20106;-82
2021/10/15 10:48:46;;;;;;;0.70;0.20;;;;;;;11.00;50.32;100178.25;4790850;30;20058;-79
2021/10/15 10:51:13;;;;;;;0.52;0.28;;;;;;;10.99;52.12;100155.06;4795700;30;20027;-80
2021/10/15 10:53:57;;;;;;;3.03;0.28;;;;;;;11.12;50.32;100165.72;4790240;30;20108;-80
2021/10/15 10:56:46;;;;;;;1.33;0.20;;;;;;;11.11;49.03;100169.47;4788640;30;20417;-82
2021/10/15 10:59:18;;;;;;;0.65;0.13;;;;;;;11.14;48.30;100203.22;4787228;30;20042;-81
2021/10/15 11:01:50;;;;;;;2.03;0.20;;;;;;;11.24;47.91;100192.78;4772312;30;20061;-79
2021/10/15 11:04:32;;;;;;;1.60;0.30;;;;;;;11.25;47.35;100165.63;4770231;30;20031;-80
2021/10/15 11:07:08;;;;;;;0.80;0.30;;;;;;;11.41;49.85;100187.69;4774132;30;20123;-80
2021/10/15 11:09:44;;;;;;;0.30;0.17;;;;;;;11.28;49.70;100183.22;4772889;30;20036;-80
2021/10/15 11:12:19;;;;;;;0.38;0.20;;;;;;;11.24;49.17;100195.47;4774556;30;20043;-80
2021/10/15 11:15:01;;;;;;;0.35;0.10;;;;;;;11.41;51.19;100211.94;4777825;30;20050;-81
2021/10/15 11:17:32;;;;;;;0.57;0.30;;;;;;;11.38;49.46;100193.50;4775410;30;20027;-81
2021/10/15 11:20:10;;;;;;;1.88;0.30;;;;;;;11.40;52.74;100203.03;4775208;30;20010;-80
2021/10/15 11:22:37;;;;;;;0.50;0.20;;;;;;;11.41;49.98;100204.66;4793962;30;20039;-82
2021/10/15 11:25:03;;;;;;;0.73;0.20;;;;;;;11.36;47.65;100228.75;4792733;30;20108;-81
2021/10/15 11:27:29;;;;;;;0.40;0.20;;;;;;;11.38;47.76;100233.91;4775100;30;20064;-80
2021/10/15 11:29:57;;;;;;;0.80;0.20;;;;;;;11.45;48.61;100215.84;4799987;30;20386;-82
2021/10/15 11:32:32;;;;;;;2.33;0.28;;;;;;;11.49;47.65;100227.84;4802635;29;20019;-81
2021/10/15 11:35:06;;;;;;;1.85;0.30;;;;;;;11.51;49.05;100220.34;4785961;30;20023;-79
2021/10/15 11:38:09;;;;;;;3.33;0.35;;;;;;;11.54;49.65;100233.38;4797047;30;20043;-79
2021/10/15 11:40:43;;;;;;;0.47;0.10;;;;;;;11.51;46.55;100225.72;4793650;30;20042;-80
2021/10/15 11:43:27;;;;;;;0.38;0.13;;;;;;;11.62;47.02;100264.59;4790754;30;20130;-80
2021/10/15 11:45:58;;;;;;;0.10;0.10;;;;;;;11.60;47.70;100235.19;4787573;30;20046;-81
2021/10/15 11:48:41;;;;;;;0.15;0.13;;;;;;;11.67;47.61;100251.31;4798906;30;20035;-82
2021/10/15 11:51:10;;;;;;;0.45;0.20;;;;;;;11.63;46.34;100275.19;4785872;30;20110;-83